sim
Sign-in with your pilot id or email,
or register
Callsign
Passwort

Schedule Details

Flight Number: DLH2429 (2)
Departure: Gothenburg Landvetter Airport (ESGG) at 11:05
Arrival: Munich Airport (EDDM) at 12:55
Route: Lufthansa Passenger Schedule. Enter filed route here before submitting Pirep.

Weather Information
Getting current METAR information for ESGG 231320Z 18011KT CAVOK 18/09 Q1001
Getting current METAR information for EDDM 231320Z 23006KT 9000 -SHRA SCT015 SCT020CB BKN043 17/15 Q1010 RESHRA NOSIG

Schedule Frequency

Route Map